Time;durP1;ratioP1;P1;durP2;ratioP2;P2;SDS_P1;SDS_P2;PMS_P1;PMS_P2;Temp;Humidity;BMP_temperature;BMP_pressure;BME280_temperature;BME280_humidity;BME280_pressure;Samples;Min_cycle;Max_cycle;Signal;HPM_P1;HPM_P2
2022/03/15 00:02:07;;;;;;;;;6.75;3.75;;;;;10.13;58.52;101638.50;5022636;28;47012;-76
2022/03/15 00:04:32;;;;;;;;;4.00;3.00;;;;;10.16;58.15;101631.44;5056284;28;45507;-77
2022/03/15 00:06:58;;;;;;;;;2.00;2.00;;;;;10.10;58.55;101625.28;5044696;28;45434;-75
2022/03/15 00:09:24;;;;;;;;;3.75;1.00;;;;;10.18;58.53;101633.19;5035492;28;45971;-76
2022/03/15 00:11:50;;;;;;;;;2.50;2.50;;;;;10.12;58.22;101636.72;5048806;28;45597;-76
2022/03/15 00:14:17;;;;;;;;;2.50;1.50;;;;;10.12;58.61;101633.22;5039503;28;45521;-76
2022/03/15 00:16:43;;;;;;;;;6.75;2.50;;;;;10.11;58.11;101624.41;5036177;28;45514;-76
2022/03/15 00:19:08;;;;;;;;;4.75;3.75;;;;;10.08;58.35;101620.88;5036134;28;45938;-76
2022/03/15 00:21:34;;;;;;;;;4.00;2.00;;;;;10.05;58.57;101616.50;5035364;28;45467;-77
2022/03/15 00:23:59;;;;;;;;;6.00;6.00;;;;;10.06;58.75;101618.25;5035683;28;45453;-76
2022/03/15 00:26:28;;;;;;;;;7.00;6.00;;;;;10.07;58.42;101630.56;5034799;28;45567;-76
2022/03/15 00:28:53;;;;;;;;;4.00;1.00;;;;;10.05;58.87;101624.44;5035372;28;45443;-77
2022/03/15 00:31:19;;;;;;;;;4.50;4.50;;;;;10.05;58.76;101623.53;5034951;28;45483;-77
2022/03/15 00:33:45;;;;;;;;;2.00;1.00;;;;;10.06;58.95;101618.25;5036088;28;45511;-76
2022/03/15 00:36:10;;;;;;;;;1.00;1.00;;;;;10.04;58.74;101621.78;5035794;28;45344;-76
2022/03/15 00:38:36;;;;;;;;;6.00;1.00;;;;;10.02;59.05;101616.50;5035423;28;45430;-76
2022/03/15 00:41:01;;;;;;;;;2.00;2.00;;;;;10.02;58.85;101610.31;5037991;28;45393;-77
2022/03/15 00:43:27;;;;;;;;;2.50;1.00;;;;;10.06;58.68;101622.66;5033585;28;45423;-77
2022/03/15 00:45:54;;;;;;;;;5.25;1.00;;;;;10.05;58.71;101613.88;5036095;28;45350;-77
2022/03/15 00:48:19;;;;;;;;;1.00;1.00;;;;;10.05;58.97;101613.88;5035165;28;45412;-76
2022/03/15 00:50:44;;;;;;;;;5.00;0.50;;;;;10.06;58.78;101609.44;5032549;28;45595;-75
2022/03/15 00:53:10;;;;;;;;;3.75;3.75;;;;;10.02;59.25;101598.03;5015182;28;45420;-75
2022/03/15 00:55:36;;;;;;;;;4.00;3.00;;;;;10.08;59.19;101607.66;5019425;28;45591;-76
2022/03/15 00:58:01;;;;;;;;;3.00;3.00;;;;;10.04;58.83;101595.38;5034644;28;45664;-76
2022/03/15 01:00:31;;;;;;;;;2.50;1.50;;;;;10.06;59.02;101605.03;5047180;28;45408;-76
2022/03/15 01:02:57;;;;;;;;;3.00;3.00;;;;;10.06;59.07;101594.47;5049147;28;45519;-77
2022/03/15 01:05:22;;;;;;;;;3.00;3.00;;;;;10.03;59.20;101593.59;5035020;28;45376;-77
2022/03/15 01:07:48;;;;;;;;;3.00;3.00;;;;;10.02;59.06;101590.09;5035650;28;45531;-77
2022/03/15 01:10:13;;;;;;;;;4.00;4.00;;;;;10.02;59.34;101590.09;5035037;28;45394;-76
2022/03/15 01:12:38;;;;;;;;;2.50;1.00;;;;;9.98;59.25;101582.19;5034342;28;45336;-76
2022/03/15 01:15:07;;;;;;;;;3.75;2.50;;;;;10.02;59.26;101590.09;5015749;28;45570;-76
2022/03/15 01:17:34;;;;;;;;;3.75;3.75;;;;;10.00;59.85;101578.63;5035142;28;45439;-76
2022/03/15 01:20:00;;;;;;;;;3.00;1.00;;;;;10.02;59.29;101582.16;5035411;28;45466;-76
2022/03/15 01:22:25;;;;;;;;;3.25;0.75;;;;;10.01;59.51;101569.84;5034671;28;45371;-76
2022/03/15 01:24:51;;;;;;;;;3.25;3.00;;;;;10.02;59.50;101571.59;5034488;28;45380;-76
2022/03/15 01:27:17;;;;;;;;;4.00;2.00;;;;;9.99;59.77;101566.34;5034355;28;45924;-76
2022/03/15 01:29:43;;;;;;;;;1.50;1.50;;;;;10.04;59.81;101571.59;5044265;28;45433;-76
2022/03/15 01:32:08;;;;;;;;;1.00;1.00;;;;;10.03;59.53;101568.06;5055179;28;45358;-76
2022/03/15 01:34:33;;;;;;;;;6.25;6.25;;;;;10.03;59.80;101568.06;5054571;28;45343;-75
2022/03/15 01:36:59;;;;;;;;;5.25;5.25;;;;;10.06;59.86;101568.06;5054831;28;46953;-76
2022/03/15 01:39:24;;;;;;;;;7.25;5.75;;;;;10.06;59.89;101568.06;5053675;28;45344;-76
2022/03/15 01:41:50;;;;;;;;;4.00;4.00;;;;;10.07;60.31;101561.91;5054644;28;45467;-76
2022/03/15 01:44:21;;;;;;;;;5.00;2.50;;;;;10.11;60.28;101552.19;5045311;28;45577;-75
2022/03/15 01:46:48;;;;;;;;;7.25;5.75;;;;;10.10;60.71;101548.69;5034284;28;46076;-76
2022/03/15 01:49:15;;;;;;;;;3.00;3.00;;;;;10.13;60.55;101548.66;5034393;28;45369;-76
2022/03/15 01:51:41;;;;;;;;;5.25;5.25;;;;;10.11;61.00;101545.16;5030122;28;45376;-76
2022/03/15 01:54:11;;;;;;;;;4.50;2.00;;;;;10.10;60.94;101535.47;5014070;28;45372;-76
2022/03/15 01:56:43;;;;;;;;;6.75;5.75;;;;;10.13;60.98;101543.38;5013913;28;46050;-76
2022/03/15 01:59:14;;;;;;;;;5.00;5.00;;;;;10.16;60.88;101531.03;5014906;28;45732;-77
2022/03/15 02:01:41;;;;;;;;;8.75;5.75;;;;;10.18;61.38;101526.66;5054816;28;45379;-75
2022/03/15 02:04:08;;;;;;;;;9.00;6.50;;;;;10.17;61.62;101519.59;5054036;28;45346;-74
2022/03/15 02:06:37;;;;;;;;;6.75;6.75;;;;;10.16;61.99;101520.47;5053771;28;46670;-75
2022/03/15 02:09:10;;;;;;;;;6.50;5.00;;;;;10.16;61.80;101520.47;5054372;28;45453;-77
2022/03/15 02:11:36;;;;;;;;;8.00;6.50;;;;;10.16;62.26;101525.75;5054285;28;45526;-75
2022/03/15 02:14:03;;;;;;;;;7.00;5.25;;;;;10.20;62.22;101522.22;5052808;28;45518;-75
2022/03/15 02:16:29;;;;;;;;;8.25;6.00;;;;;10.14;62.53;101505.53;5041925;28;45426;-77
2022/03/15 02:18:57;;;;;;;;;5.25;5.00;;;;;10.21;62.76;101526.66;5014667;28;45390;-75
2022/03/15 02:21:23;;;;;;;;;5.75;5.00;;;;;10.21;63.59;101514.31;4996174;28;45436;-76
2022/03/15 02:23:49;;;;;;;;;5.00;5.00;;;;;10.19;63.43;101509.91;5048884;28;45639;-76
2022/03/15 02:26:16;;;;;;;;;3.00;3.00;;;;;10.17;63.71;101503.75;5058321;28;45361;-76
2022/03/15 02:28:43;;;;;;;;;6.25;6.25;;;;;10.14;64.18;101494.97;5047216;28;45486;-76
2022/03/15 02:31:09;;;;;;;;;5.00;5.00;;;;;10.17;64.41;101493.19;5038678;28;45261;-78
2022/03/15 02:33:34;;;;;;;;;6.50;6.50;;;;;10.18;64.34;101497.59;5050590;28;45597;-77
2022/03/15 02:35:59;;;;;;;;;6.00;5.50;;;;;10.13;65.11;101479.13;5048625;28;45929;-77
2022/03/15 02:38:25;;;;;;;;;5.25;5.00;;;;;10.18;65.04;101487.03;5037553;28;45503;-77
2022/03/15 02:40:50;;;;;;;;;6.00;6.00;;;;;10.18;65.15;101487.91;5037852;28;45330;-76
2022/03/15 02:43:15;;;;;;;;;6.75;6.75;;;;;10.14;65.48;101481.75;5052184;28;45304;-77
2022/03/15 02:45:41;;;;;;;;;9.25;6.25;;;;;10.18;65.46;101481.75;5056230;28;46138;-76
2022/03/15 02:48:06;;;;;;;;;8.00;7.75;;;;;10.17;65.53;101486.13;5057843;28;45379;-77
2022/03/15 02:50:31;;;;;;;;;13.00;10.00;;;;;10.14;66.03;101473.81;5056741;28;45432;-76
2022/03/15 02:52:57;;;;;;;;;13.50;12.25;;;;;10.16;65.90;101478.22;5018712;28;45599;-76
2022/03/15 02:55:24;;;;;;;;;17.00;13.50;;;;;10.13;66.17;101469.41;5019166;28;46292;-76
2022/03/15 02:57:49;;;;;;;;;17.75;17.75;;;;;10.14;66.34;101468.53;5036920;28;45570;-76
2022/03/15 03:00:15;;;;;;;;;21.00;20.25;;;;;10.19;66.75;101463.25;5040199;28;45500;-76
2022/03/15 03:02:41;;;;;;;;;24.00;20.50;;;;;10.15;66.83;101461.50;5036950;28;45420;-76
2022/03/15 03:05:07;;;;;;;;;23.50;21.75;;;;;10.15;67.36;101456.19;5036436;28;46336;-76
2022/03/15 03:07:34;;;;;;;;;31.00;28.50;;;;;10.12;67.52;101449.16;5019235;28;45466;-76
2022/03/15 03:10:00;;;;;;;;;30.75;27.00;;;;;10.14;67.86;101455.34;5036993;28;45575;-76
2022/03/15 03:12:27;;;;;;;;;18.75;18.75;;;;;10.17;68.21;101453.56;5037093;28;45479;-76
2022/03/15 03:14:53;;;;;;;;;18.00;18.00;;;;;10.17;68.45;101458.84;5041297;28;45962;-75
2022/03/15 03:17:19;;;;;;;;;19.50;18.25;;;;;10.17;68.87;101457.06;5057129;28;45509;-75
2022/03/15 03:19:44;;;;;;;;;15.75;12.25;;;;;10.14;69.06;101452.69;5056829;28;45483;-76
2022/03/15 03:22:11;;;;;;;;;10.25;7.00;;;;;10.18;69.34;101453.53;5044513;28;45627;-75
2022/03/15 03:24:36;;;;;;;;;10.50;7.50;;;;;10.16;70.40;101449.16;5036427;28;45505;-76
2022/03/15 03:27:03;;;;;;;;;7.00;7.00;;;;;10.13;70.93;101456.22;5034529;28;45541;-76
2022/03/15 03:29:29;;;;;;;;;10.50;10.50;;;;;10.13;70.67;101463.28;5018301;28;45518;-76
2022/03/15 03:31:55;;;;;;;;;11.25;10.75;;;;;10.12;72.00;101450.94;5035838;28;45579;-76
2022/03/15 03:34:21;;;;;;;;;8.25;8.00;;;;;10.14;72.08;101457.97;5036302;28;46139;-76
2022/03/15 03:36:46;;;;;;;;;10.75;7.00;;;;;10.12;72.05;101462.38;5035725;28;45366;-77
2022/03/15 03:39:11;;;;;;;;;10.00;8.50;;;;;10.12;71.70;101456.22;5036364;28;45700;-76
2022/03/15 03:41:37;;;;;;;;;8.75;8.25;;;;;10.09;72.39;101462.38;5037042;28;45406;-77
2022/03/15 03:44:03;;;;;;;;;12.50;9.25;;;;;10.07;73.13;101456.25;5042221;28;45998;-77
2022/03/15 03:46:29;;;;;;;;;9.75;9.00;;;;;10.08;73.68;101455.38;5056950;28;45364;-76
2022/03/15 03:48:56;;;;;;;;;9.25;8.00;;;;;10.02;73.74;101439.53;5038438;28;45470;-76
2022/03/15 03:51:21;;;;;;;;;4.00;3.00;;;;;10.06;74.37;101451.81;5041301;28;45667;-76
2022/03/15 03:53:47;;;;;;;;;14.00;10.75;;;;;10.02;74.84;101449.22;5055995;28;46097;-76
2022/03/15 03:56:12;;;;;;;;;10.00;10.00;;;;;10.01;75.25;101450.97;5056002;28;45558;-76
2022/03/15 03:58:37;;;;;;;;;10.75;8.00;;;;;10.00;75.57;101441.28;5056368;28;45423;-78
2022/03/15 04:01:03;;;;;;;;;10.75;10.75;;;;;10.01;75.89;101450.97;5056444;28;45478;-77
2022/03/15 04:03:30;;;;;;;;;6.75;6.75;;;;;9.99;76.01;101442.19;5040017;28;45360;-76
2022/03/15 04:05:56;;;;;;;;;8.00;7.00;;;;;9.97;75.97;101441.31;5036316;28;45446;-76
2022/03/15 04:08:22;;;;;;;;;12.00;11.00;;;;;9.98;76.50;101435.16;5035382;28;45285;-76
2022/03/15 04:10:49;;;;;;;;;11.00;10.75;;;;;9.96;76.59;101431.66;5035818;28;45446;-76
2022/03/15 04:13:16;;;;;;;;;9.50;9.50;;;;;9.96;76.84;101424.59;5035372;28;45457;-77
2022/03/15 04:15:42;;;;;;;;;9.00;9.00;;;;;9.97;76.64;101417.53;5035855;28;45473;-77
2022/03/15 04:18:07;;;;;;;;;12.25;11.00;;;;;10.00;76.70;101427.22;5038765;28;45521;-75
2022/03/15 04:20:32;;;;;;;;;12.50;9.75;;;;;9.95;76.66;101411.41;5034869;28;45379;-76
2022/03/15 04:22:58;;;;;;;;;7.25;7.25;;;;;9.96;76.99;101411.38;5035672;28;45469;-76
2022/03/15 04:25:24;;;;;;;;;8.75;8.75;;;;;9.97;77.37;101420.19;5035986;28;45474;-74
2022/03/15 04:27:49;;;;;;;;;9.75;9.25;;;;;9.96;77.69;101418.44;5035907;28;45367;-76
2022/03/15 04:30:15;;;;;;;;;12.00;10.00;;;;;9.94;77.43;101404.34;5035547;28;45578;-76
2022/03/15 04:32:40;;;;;;;;;12.75;9.25;;;;;9.96;78.00;101413.16;5034801;28;45891;-76
2022/03/15 04:35:06;;;;;;;;;9.50;8.00;;;;;9.97;78.04;101409.63;5036046;28;45712;-77
2022/03/15 04:37:31;;;;;;;;;13.75;10.50;;;;;9.91;78.31;101405.22;5054643;28;45331;-81
2022/03/15 04:39:58;;;;;;;;;9.25;9.25;;;;;9.91;78.00;101415.78;5062926;28;45411;-80
2022/03/15 04:42:24;;;;;;;;;10.25;10.00;;;;;9.93;78.46;101415.81;5057316;28;45538;-81
2022/03/15 04:44:49;;;;;;;;;11.00;9.75;;;;;9.95;78.44;101404.34;5056114;28;45466;-81
2022/03/15 04:47:15;;;;;;;;;9.50;6.75;;;;;9.95;78.65;101403.47;5037918;28;45514;-81
2022/03/15 04:49:41;;;;;;;;;7.25;7.25;;;;;9.95;78.80;101412.25;5016226;28;45416;-81
2022/03/15 04:52:06;;;;;;;;;10.50;9.25;;;;;9.93;78.96;101407.91;5015842;28;45500;-80
2022/03/15 04:54:32;;;;;;;;;13.00;13.00;;;;;9.92;79.19;101396.44;5016114;28;45552;-81
2022/03/15 04:56:57;;;;;;;;;11.75;11.75;;;;;9.95;79.37;101404.34;5024512;28;45444;-80
2022/03/15 04:59:23;;;;;;;;;10.50;9.75;;;;;9.99;78.79;101399.94;5056272;28;45352;-81
2022/03/15 05:01:48;;;;;;;;;10.00;10.00;;;;;9.94;79.62;101393.78;5055266;28;45532;-80
2022/03/15 05:04:14;;;;;;;;;14.00;9.75;;;;;9.96;79.74;101400.81;5035960;28;45380;-81
2022/03/15 05:06:39;;;;;;;;;11.00;10.25;;;;;9.98;79.45;101394.66;5036309;28;45400;-81
2022/03/15 05:09:05;;;;;;;;;10.00;9.00;;;;;9.98;80.16;101399.94;5036513;28;45298;-80
2022/03/15 05:11:31;;;;;;;;;9.75;9.75;;;;;9.93;80.86;101397.31;5018473;28;48102;-80
2022/03/15 05:13:56;;;;;;;;;8.25;8.25;;;;;9.94;80.74;101397.31;5035519;28;45499;-81
2022/03/15 05:16:22;;;;;;;;;10.00;10.00;;;;;9.94;81.86;101397.31;5035495;28;45333;-81
2022/03/15 05:18:54;;;;;;;;;9.00;9.00;;;;;9.95;81.58;101395.56;5036013;28;45269;-82
2022/03/15 05:21:25;;;;;;;;;10.75;9.00;;;;;9.94;82.46;101399.97;5031974;28;47240;-81
2022/03/15 05:23:51;;;;;;;;;13.50;9.50;;;;;9.94;82.11;101401.69;5056023;28;45479;-81
2022/03/15 05:26:17;;;;;;;;;14.00;11.50;;;;;9.93;82.02;101397.31;5055548;28;45447;-81
2022/03/15 05:28:45;;;;;;;;;13.25;10.00;;;;;9.91;82.83;101399.06;5055709;28;45427;-81
2022/03/15 05:31:11;;;;;;;;;12.00;10.00;;;;;9.89;83.03;101395.56;5056658;28;45469;-80
2022/03/15 05:33:36;;;;;;;;;7.00;7.00;;;;;9.88;82.85;101407.00;5042913;28;45391;-81
2022/03/15 05:36:03;;;;;;;;;7.25;7.25;;;;;9.89;83.28;101401.72;5037302;28;45435;-81
2022/03/15 05:38:28;;;;;;;;;11.75;10.50;;;;;9.89;82.88;101403.50;5014036;28;45570;-80
2022/03/15 05:40:54;;;;;;;;;9.50;7.75;;;;;9.92;82.92;101414.03;5026357;28;45573;-81
2022/03/15 05:43:20;;;;;;;;;9.50;8.00;;;;;9.90;83.05;101406.13;5037492;28;45379;-81
2022/03/15 05:45:46;;;;;;;;;13.00;10.00;;;;;9.89;83.58;101392.94;5035489;28;45237;-81
2022/03/15 05:48:12;;;;;;;;;11.50;9.00;;;;;9.89;83.79;101396.44;5048843;28;45398;-82
2022/03/15 05:50:37;;;;;;;;;13.75;13.75;;;;;9.92;83.60;101398.19;5050223;28;45874;-81
2022/03/15 05:53:06;;;;;;;;;14.75;11.50;;;;;9.91;83.33;101409.63;5016695;28;45537;-81
2022/03/15 05:55:32;;;;;;;;;12.50;11.00;;;;;9.91;83.69;101413.16;5030031;28;45466;-81
2022/03/15 05:57:58;;;;;;;;;10.00;10.00;;;;;9.93;83.82;101414.03;5036033;28;45489;-82
2022/03/15 06:00:24;;;;;;;;;13.50;11.00;;;;;9.86;84.24;101403.50;5035158;28;46012;-81
2022/03/15 06:02:50;;;;;;;;;11.00;9.75;;;;;9.92;84.54;101400.84;5035536;28;45429;-82
2022/03/15 06:05:15;;;;;;;;;12.75;12.75;;;;;9.92;84.14;101408.75;5035432;28;45404;-82
2022/03/15 06:07:48;;;;;;;;;13.25;8.50;;;;;9.92;84.56;101401.72;5029493;28;45447;-81
2022/03/15 06:10:15;;;;;;;;;11.75;10.50;;;;;9.91;84.76;101412.28;5056838;28;46081;-83
2022/03/15 06:12:42;;;;;;;;;12.25;12.25;;;;;9.93;84.63;101413.19;5056904;28;45541;-82
2022/03/15 06:15:08;;;;;;;;;15.50;14.00;;;;;9.94;84.49;101414.91;5037099;28;45465;-82
2022/03/15 06:17:43;;;;;;;;;14.25;13.00;;;;;9.98;84.73;101415.78;5056511;28;45737;-83
2022/03/15 06:20:12;;;;;;;;;14.25;12.25;;;;;9.96;85.36;101419.31;5042174;28;45937;-80
2022/03/15 06:22:38;;;;;;;;;14.00;12.50;;;;;10.00;84.47;101416.66;5036632;28;45387;-77
2022/03/15 06:25:04;;;;;;;;;16.00;13.00;;;;;10.00;84.41;101414.88;5034458;28;45355;-77
2022/03/15 06:27:30;;;;;;;;;15.25;13.00;;;;;9.99;84.81;101413.16;5034154;28;45517;-77
2022/03/15 06:29:55;;;;;;;;;16.25;14.50;;;;;10.01;84.93;101406.09;5032664;28;46111;-77
2022/03/15 06:32:21;;;;;;;;;17.00;14.00;;;;;10.00;84.83;101409.59;5034263;28;45419;-78
2022/03/15 06:34:46;;;;;;;;;15.00;13.50;;;;;9.88;84.81;101393.81;5035810;28;45533;-77
2022/03/15 06:37:12;;;;;;;;;14.75;14.75;;;;;10.03;85.12;101414.00;5030417;28;45494;-78
2022/03/15 06:39:37;;;;;;;;;12.00;12.00;;;;;9.93;84.96;101397.31;5032155;28;47093;-78
2022/03/15 06:42:11;;;;;;;;;16.75;13.25;;;;;10.05;85.06;101412.22;5035276;28;45530;-77
2022/03/15 06:44:37;;;;;;;;;14.25;13.75;;;;;10.05;84.97;101418.41;5032364;28;45502;-77
2022/03/15 06:47:02;;;;;;;;;19.75;19.75;;;;;10.02;85.07;101407.84;5033127;28;45399;-77
2022/03/15 06:49:28;;;;;;;;;15.00;15.00;;;;;10.02;85.12;101412.22;5033548;28;45502;-79
2022/03/15 06:51:53;;;;;;;;;16.00;16.00;;;;;10.07;84.83;101419.25;5023261;28;45521;-77
2022/03/15 06:54:18;;;;;;;;;19.50;18.50;;;;;10.09;85.25;101414.84;5026557;28;45518;-78
2022/03/15 06:56:44;;;;;;;;;20.00;17.25;;;;;10.06;85.49;101421.91;5035559;28;45491;-77
2022/03/15 06:59:09;;;;;;;;;19.50;17.25;;;;;10.11;85.08;101413.09;5031672;28;45371;-76
2022/03/15 07:01:34;;;;;;;;;23.75;20.50;;;;;10.10;84.86;101408.69;5014289;28;45860;-77
2022/03/15 07:04:00;;;;;;;;;20.75;19.25;;;;;10.09;85.43;101409.56;5032348;28;45384;-77
2022/03/15 07:06:25;;;;;;;;;15.50;14.75;;;;;10.07;85.40;101400.78;5032992;28;45513;-78
2022/03/15 07:08:51;;;;;;;;;22.25;20.25;;;;;10.05;85.81;101397.28;5029507;28;46037;-77
2022/03/15 07:11:16;;;;;;;;;22.25;16.75;;;;;10.10;85.48;101410.44;5032847;28;45380;-77
2022/03/15 07:13:42;;;;;;;;;18.25;18.00;;;;;10.09;85.48;101411.31;5035671;28;45510;-77
2022/03/15 07:16:07;;;;;;;;;22.00;19.00;;;;;9.93;85.20;101392.03;5017283;28;45650;-77
2022/03/15 07:18:32;;;;;;;;;19.50;18.25;;;;;10.03;85.92;101409.59;5040206;28;45545;-78
2022/03/15 07:20:58;;;;;;;;;21.50;19.25;;;;;9.95;86.08;101398.19;5035595;28;45519;-77
2022/03/15 07:23:23;;;;;;;;;22.25;20.00;;;;;10.03;85.64;101417.50;5035554;28;45360;-79
2022/03/15 07:25:49;;;;;;;;;18.50;18.50;;;;;10.01;86.10;101416.66;5035981;28;45411;-78
2022/03/15 07:28:14;;;;;;;;;20.50;19.00;;;;;10.04;86.38;101419.28;5035410;28;45608;-77
2022/03/15 07:30:39;;;;;;;;;19.75;16.00;;;;;10.06;85.92;101420.13;5035495;28;45459;-78
2022/03/15 07:33:05;;;;;;;;;24.50;21.75;;;;;10.06;86.53;101420.13;5035392;28;45395;-77
2022/03/15 07:35:30;;;;;;;;;25.75;23.75;;;;;10.02;85.88;101426.34;5029560;28;45470;-78
2022/03/15 07:37:56;;;;;;;;;22.50;19.00;;;;;10.03;86.35;101425.44;5035741;28;45997;-77
2022/03/15 07:40:23;;;;;;;;;24.75;22.50;;;;;10.07;86.54;101424.53;5014479;28;45405;-78
2022/03/15 07:42:49;;;;;;;;;24.75;21.00;;;;;10.10;86.78;101424.53;5034699;28;45613;-78
2022/03/15 07:45:14;;;;;;;;;22.50;20.00;;;;;9.99;86.60;101380.56;5034938;28;45418;-78
2022/03/15 07:47:40;;;;;;;;;25.00;24.75;;;;;10.14;86.91;101407.78;5016289;28;47156;-77
2022/03/15 07:50:05;;;;;;;;;20.50;19.50;;;;;10.18;86.35;101413.06;5035331;28;45338;-76
2022/03/15 07:52:31;;;;;;;;;23.25;18.00;;;;;10.23;86.60;101414.78;5025897;28;45455;-78
2022/03/15 07:54:56;;;;;;;;;27.00;21.50;;;;;10.25;85.60;101410.38;5034468;28;45690;-77
2022/03/15 07:57:21;;;;;;;;;23.25;21.25;;;;;10.29;85.61;101405.94;5034306;28;45314;-78
2022/03/15 07:59:47;;;;;;;;;31.50;23.75;;;;;10.28;86.27;101398.91;5034615;28;45276;-78
2022/03/15 08:02:14;;;;;;;;;24.00;21.50;;;;;10.30;86.16;101403.28;5034887;28;45293;-79
2022/03/15 08:04:40;;;;;;;;;20.00;18.00;;;;;10.36;86.80;101401.53;5038219;28;45447;-82
2022/03/15 08:07:05;;;;;;;;;24.25;20.75;;;;;10.36;86.41;101394.47;5016599;28;46470;-82
2022/03/15 08:09:31;;;;;;;;;19.00;17.00;;;;;10.30;85.34;101382.16;5037001;28;45424;-82
2022/03/15 08:11:56;;;;;;;;;23.00;19.75;;;;;10.39;85.36;101394.47;5040808;28;45690;-82
2022/03/15 08:14:21;;;;;;;;;24.50;21.50;;;;;10.32;85.06;101383.03;5038802;28;45782;-82
2022/03/15 08:16:47;;;;;;;;;19.75;16.50;;;;;10.45;85.47;101399.72;5037068;28;45956;-77
2022/03/15 08:19:13;;;;;;;;;19.75;18.50;;;;;10.51;84.60;101397.91;5036281;28;45495;-75
2022/03/15 08:21:39;;;;;;;;;19.50;18.00;;;;;10.44;85.12;101381.22;5038995;28;45473;-78
2022/03/15 08:24:04;;;;;;;;;24.25;20.50;;;;;10.53;84.85;101404.06;5035467;28;45436;-77
2022/03/15 08:26:30;;;;;;;;;22.25;20.25;;;;;10.45;85.00;101385.63;5034851;28;46169;-76
2022/03/15 08:28:55;;;;;;;;;24.00;21.75;;;;;10.52;85.58;101382.03;5017474;28;45348;-77
2022/03/15 08:31:21;;;;;;;;;17.50;16.25;;;;;10.49;84.71;101382.94;5016365;28;45440;-82
2022/03/15 08:33:46;;;;;;;;;20.00;17.50;;;;;10.54;83.97;101393.50;5019492;28;45440;-77
2022/03/15 08:36:15;;;;;;;;;22.00;19.00;;;;;10.53;84.14;101396.16;5038367;28;46276;-77
2022/03/15 08:38:41;;;;;;;;;14.25;12.25;;;;;10.53;84.30;101404.06;5035039;28;45431;-81
2022/03/15 08:41:08;;;;;;;;;20.25;19.50;;;;;10.51;84.42;101411.13;5038938;28;45514;-76
2022/03/15 08:43:33;;;;;;;;;24.75;21.25;;;;;10.50;84.51;101415.53;5037586;28;45648;-78
2022/03/15 08:45:58;;;;;;;;;24.00;20.25;;;;;10.50;84.86;101412.91;5040038;28;45419;-77
2022/03/15 08:48:33;;;;;;;;;22.50;20.00;;;;;10.53;84.73;101419.94;5035308;28;45493;-77
2022/03/15 08:51:02;;;;;;;;;26.00;22.75;;;;;10.51;84.87;101417.31;5033161;28;45644;-76
2022/03/15 08:53:35;;;;;;;;;23.50;22.50;;;;;10.48;84.79;101414.69;5033350;28;45515;-77
2022/03/15 08:56:01;;;;;;;;;20.50;19.50;;;;;10.38;84.30;101403.25;5042558;28;46233;-76
2022/03/15 08:58:26;;;;;;;;;26.00;23.50;;;;;10.49;84.53;101430.53;5015502;28;45356;-76
2022/03/15 09:00:52;;;;;;;;;19.25;19.00;;;;;10.54;84.67;101427.00;5023330;28;45380;-77
2022/03/15 09:03:19;;;;;;;;;27.25;25.75;;;;;10.48;84.41;101409.41;5015904;28;45416;-77
2022/03/15 09:05:45;;;;;;;;;27.25;25.00;;;;;10.57;84.54;101413.75;5031961;28;45463;-76
2022/03/15 09:08:10;;;;;;;;;24.00;22.50;;;;;10.59;84.51;101411.97;5037962;28;45478;-77
2022/03/15 09:10:36;;;;;;;;;23.25;20.00;;;;;10.61;84.49;101423.38;5047507;28;45476;-80
2022/03/15 09:13:03;;;;;;;;;21.75;21.75;;;;;10.60;84.73;101422.53;5045275;28;45523;-76
2022/03/15 09:15:29;;;;;;;;;23.50;19.75;;;;;10.62;84.52;101431.31;5019204;28;47803;-75
2022/03/15 09:17:56;;;;;;;;;27.25;23.50;;;;;10.61;84.47;101433.97;5033201;28;45440;-77
2022/03/15 09:20:21;;;;;;;;;25.75;23.50;;;;;10.62;84.82;101433.09;5036045;28;45524;-76
2022/03/15 09:22:47;;;;;;;;;25.00;23.00;;;;;10.64;85.10;101423.38;5033346;28;45643;-76
2022/03/15 09:25:13;;;;;;;;;26.50;21.00;;;;;10.70;84.16;101428.63;5037209;28;45344;-80
2022/03/15 09:27:38;;;;;;;;;26.50;23.75;;;;;10.75;84.90;101437.41;5036971;28;45360;-76
2022/03/15 09:30:05;;;;;;;;;21.75;20.00;;;;;10.75;84.08;101418.91;5034067;28;45361;-77
2022/03/15 09:32:30;;;;;;;;;28.25;22.00;;;;;10.85;84.11;101427.63;5034593;28;45363;-76
2022/03/15 09:34:55;;;;;;;;;26.75;25.25;;;;;10.86;83.31;101417.94;5032480;28;45493;-73
2022/03/15 09:37:21;;;;;;;;;30.50;24.75;;;;;10.91;83.29;101416.13;5032561;28;45409;-75
2022/03/15 09:39:47;;;;;;;;;23.50;21.50;;;;;10.91;83.71;101406.41;5033066;28;45394;-77
2022/03/15 09:42:13;;;;;;;;;24.25;21.75;;;;;10.89;83.05;101404.69;5033599;28;45414;-76
2022/03/15 09:44:41;;;;;;;;;20.50;16.25;;;;;10.84;83.25;101405.59;5033632;28;46236;-75
2022/03/15 09:47:08;;;;;;;;;23.25;22.50;;;;;10.89;83.52;101402.06;5041849;28;45337;-75
2022/03/15 09:49:36;;;;;;;;;24.75;23.00;;;;;10.82;83.57;101382.69;5033710;28;45340;-76
2022/03/15 09:52:04;;;;;;;;;20.50;19.00;;;;;10.92;83.35;101391.44;5030323;28;45542;-76
2022/03/15 09:54:31;;;;;;;;;20.00;19.25;;;;;10.91;83.21;101390.56;5012215;28;46507;-77
2022/03/15 09:56:57;;;;;;;;;32.75;22.50;;;;;10.96;83.51;101388.75;5025339;28;45552;-76
2022/03/15 09:59:26;;;;;;;;;26.50;21.50;;;;;11.01;84.14;101392.22;5035032;28;45605;-75
2022/03/15 10:01:53;;;;;;;;;25.00;21.50;;;;;10.98;84.26;101383.47;5032700;28;45755;-75
2022/03/15 10:04:23;;;;;;;;;30.00;24.75;;;;;11.06;84.07;101389.53;5034115;28;45545;-76
2022/03/15 10:06:50;;;;;;;;;24.00;21.50;;;;;11.13;83.63;101391.25;5032164;28;45531;-75
2022/03/15 10:09:15;;;;;;;;;28.00;26.25;;;;;11.16;84.41;101385.06;5032902;28;45493;-76
2022/03/15 10:11:42;;;;;;;;;29.75;26.50;;;;;11.20;83.91;101392.97;5032913;28;45545;-81
2022/03/15 10:14:08;;;;;;;;;29.50;24.75;;;;;11.16;83.64;101391.22;5034340;28;46628;-80
2022/03/15 10:16:40;;;;;;;;;26.25;23.50;;;;;11.18;83.31;101389.44;5035086;28;45452;-80
2022/03/15 10:19:07;;;;;;;;;23.75;23.25;;;;;11.23;83.68;101385.88;5034139;28;45478;-82
2022/03/15 10:21:54;;;;;;;;;28.25;21.00;;;;;11.27;83.47;101390.25;5037820;28;45515;-80
2022/03/15 10:24:22;;;;;;;;;24.75;24.75;;;;;11.27;83.72;101393.75;5033356;28;45477;-80
2022/03/15 10:26:50;;;;;;;;;23.75;23.75;;;;;11.27;83.71;101392.91;5034878;28;45234;-81
2022/03/15 10:29:17;;;;;;;;;28.25;24.50;;;;;11.21;82.87;101383.25;5033243;28;45461;-77
2022/03/15 10:31:43;;;;;;;;;25.00;23.00;;;;;11.20;82.24;101382.38;5034748;28;45566;-75
2022/03/15 10:34:10;;;;;;;;;23.50;20.50;;;;;11.19;82.31;101385.03;5039252;28;46093;-76
2022/03/15 10:36:41;;;;;;;;;33.50;25.25;;;;;11.22;82.40;101386.75;5037128;28;45452;-76
2022/03/15 10:39:09;;;;;;;;;24.00;22.00;;;;;11.24;82.49;101382.34;5032293;28;45435;-76
2022/03/15 10:42:03;;;;;;;;;24.25;24.00;;;;;11.24;82.29;101377.06;5039370;28;45516;-75
2022/03/15 10:44:33;;;;;;;;;32.25;31.50;;;;;11.22;81.76;101378.81;5025888;28;46366;-77
2022/03/15 10:47:10;;;;;;;;;32.00;30.25;;;;;11.23;82.03;101377.94;5040355;28;45671;-77
2022/03/15 10:49:54;;;;;;;;;19.25;19.25;;;;;11.22;81.78;101379.72;5015054;28;45434;-77
2022/03/15 10:52:40;;;;;;;;;29.75;27.00;;;;;11.22;82.43;101374.41;5029783;28;45939;-77
2022/03/15 10:55:32;;;;;;;;;65.00;52.25;;;;;11.26;82.11;101376.13;5014757;28;45543;-77
2022/03/15 10:58:05;;;;;;;;;28.25;25.50;;;;;11.25;81.18;101357.59;5026234;28;45539;-76
2022/03/15 11:00:35;;;;;;;;;27.50;24.75;;;;;11.32;81.93;101360.16;5033186;28;45648;-76
2022/03/15 11:03:02;;;;;;;;;23.75;22.25;;;;;11.34;81.10;101358.41;5035904;28;45479;-76
2022/03/15 11:05:39;;;;;;;;;19.50;16.75;;;;;11.38;80.63;101357.47;5035429;28;45561;-77
2022/03/15 11:08:15;;;;;;;;;29.00;27.25;;;;;11.38;80.92;101348.66;5032221;28;45520;-77
2022/03/15 11:10:45;;;;;;;;;58.50;45.75;;;;;11.45;79.63;101358.28;5036301;28;45371;-77
2022/03/15 11:13:12;;;;;;;;;30.50;25.50;;;;;11.48;80.07;101363.53;5036054;28;45503;-78
2022/03/15 11:15:48;;;;;;;;;24.75;23.25;;;;;11.45;81.26;101338.84;5034761;28;46330;-77